Time;durP1;ratioP1;P1;durP2;ratioP2;P2;SDS_P1;SDS_P2;PMS_P1;PMS_P2;Temp;Humidity;BMP_temperature;BMP_pressure;BME280_temperature;BME280_humidity;BME280_pressure;Samples;Min_cycle;Max_cycle;Signal;HPM_P1;HPM_P2
2021/03/22 00:01:09;;;;;;;8.10;4.28;;;8.90;36.90;;;;;;5075151;28;20021;-76
2021/03/22 00:03:35;;;;;;;7.50;4.10;;;9.00;36.50;;;;;;5075600;28;20032;-72
2021/03/22 00:06:02;;;;;;;7.20;4.68;;;9.00;36.60;;;;;;5075355;28;20024;-72
2021/03/22 00:08:28;;;;;;;8.70;4.30;;;8.90;36.50;;;;;;5075048;28;20033;-73
2021/03/22 00:10:54;;;;;;;7.47;4.05;;;8.80;36.40;;;;;;5075113;28;20019;-74
2021/03/22 00:13:23;;;;;;;8.90;4.53;;;8.80;36.30;;;;;;5075055;28;20036;-73
2021/03/22 00:15:50;;;;;;;8.70;3.90;;;8.70;36.30;;;;;;5075035;28;20029;-73
2021/03/22 00:18:20;;;;;;;6.93;3.75;;;8.70;36.20;;;;;;5074636;28;20401;-72
2021/03/22 00:20:47;;;;;;;7.10;4.50;;;8.70;36.10;;;;;;5074966;28;20489;-73
2021/03/22 00:23:14;;;;;;;7.82;4.55;;;8.70;36.50;;;;;;5074884;28;20029;-72
2021/03/22 00:25:39;;;;;;;7.95;4.47;;;8.70;36.10;;;;;;5074594;28;20473;-74
2021/03/22 00:28:06;;;;;;;6.78;4.05;;;8.80;36.40;;;;;;5074636;28;20029;-73
2021/03/22 00:30:35;;;;;;;6.95;4.40;;;8.70;36.20;;;;;;5074878;28;20412;-75
2021/03/22 00:33:02;;;;;;;7.32;4.30;;;8.70;36.00;;;;;;5074394;28;20047;-73
2021/03/22 00:35:28;;;;;;;7.35;4.28;;;8.70;36.00;;;;;;5074658;28;20029;-70
2021/03/22 00:37:54;;;;;;;7.35;4.10;;;8.80;36.10;;;;;;5074430;28;20029;-69
2021/03/22 00:40:23;;;;;;;8.10;4.38;;;8.80;35.80;;;;;;5074475;28;20086;-76
2021/03/22 00:42:49;;;;;;;7.95;4.13;;;8.80;35.70;;;;;;5073388;28;20056;-76
2021/03/22 00:45:17;;;;;;;7.25;3.60;;;8.80;35.80;;;;;;5074388;28;20027;-77
2021/03/22 00:47:43;;;;;;;5.47;3.50;;;8.80;35.80;;;;;;5056291;28;20112;-74
2021/03/22 00:50:20;;;;;;;7.38;4.05;;;8.70;35.70;;;;;;5056284;28;20020;-72
2021/03/22 00:52:46;;;;;;;11.30;4.38;;;8.70;35.40;;;;;;5073866;28;20056;-75
2021/03/22 00:55:12;;;;;;;7.40;4.13;;;8.70;35.40;;;;;;5074415;28;20066;-78
2021/03/22 00:57:37;;;;;;;7.32;3.40;;;8.70;35.40;;;;;;5074330;28;20104;-70
2021/03/22 01:00:06;;;;;;;8.40;3.90;;;8.70;35.50;;;;;;5074165;28;20024;-74
2021/03/22 01:02:32;;;;;;;8.82;3.78;;;8.70;35.20;;;;;;5074127;28;20138;-77
2021/03/22 01:04:57;;;;;;;7.63;3.83;;;8.70;35.40;;;;;;5073969;28;20036;-75
2021/03/22 01:07:23;;;;;;;8.18;4.07;;;8.70;35.40;;;;;;5074466;28;20046;-74
2021/03/22 01:09:49;;;;;;;7.60;3.90;;;8.60;35.30;;;;;;5074259;28;20067;-76
2021/03/22 01:12:14;;;;;;;7.85;3.95;;;8.60;35.50;;;;;;5073960;28;20129;-72
2021/03/22 01:14:40;;;;;;;7.13;3.83;;;8.60;35.50;;;;;;5074117;28;20060;-71
2021/03/22 01:17:06;;;;;;;6.38;3.80;;;8.60;35.60;;;;;;5073891;28;20036;-73
2021/03/22 01:19:32;;;;;;;6.47;3.75;;;8.60;35.80;;;;;;5075486;28;20053;-72
2021/03/22 01:22:01;;;;;;;7.53;3.65;;;8.60;35.80;;;;;;5075555;28;20059;-76
2021/03/22 01:24:31;;;;;;;8.02;3.47;;;8.70;36.10;;;;;;5074642;28;20445;-72
2021/03/22 01:27:05;;;;;;;8.07;3.72;;;8.60;36.10;;;;;;5073583;28;20032;-79
2021/03/22 01:29:35;;;;;;;7.88;3.88;;;8.60;36.30;;;;;;5074004;28;20066;-72
2021/03/22 01:32:02;;;;;;;7.37;4.27;;;8.50;36.30;;;;;;5073604;28;20113;-78
2021/03/22 01:34:29;;;;;;;6.25;3.75;;;8.60;36.50;;;;;;5073567;28;20393;-77
2021/03/22 01:36:57;;;;;;;5.57;3.47;;;8.60;37.20;;;;;;5073853;28;20031;-70
2021/03/22 01:39:26;;;;;;;7.97;3.75;;;8.60;36.60;;;;;;5056222;28;20115;-76
2021/03/22 01:42:10;;;;;;;6.38;3.70;;;8.60;36.50;;;;;;5073591;28;20024;-73
2021/03/22 01:44:42;;;;;;;7.35;4.45;;;8.50;37.00;;;;;;5073625;28;20020;-70
2021/03/22 01:47:29;;;;;;;8.65;4.00;;;8.50;36.90;;;;;;5073371;28;20055;-77
2021/03/22 01:50:09;;;;;;;6.38;3.85;;;8.50;37.10;;;;;;5073589;28;20060;-74
2021/03/22 01:52:38;;;;;;;8.10;4.20;;;8.50;37.40;;;;;;5073315;28;20078;-78
2021/03/22 01:55:07;;;;;;;8.73;4.10;;;8.50;37.30;;;;;;5073584;28;20082;-74
2021/03/22 01:57:39;;;;;;;8.82;3.90;;;8.50;37.30;;;;;;5073352;28;20066;-71
2021/03/22 02:00:27;;;;;;;6.55;3.85;;;8.50;37.60;;;;;;5073533;28;20048;-77
2021/03/22 02:03:10;;;;;;;7.78;3.80;;;8.40;37.90;;;;;;5073255;28;20064;-78
2021/03/22 02:05:38;;;;;;;5.88;3.53;;;8.40;38.00;;;;;;5073511;28;20034;-70
2021/03/22 02:08:20;;;;;;;6.03;4.05;;;8.40;37.60;;;;;;5073114;28;20039;-73
2021/03/22 02:10:46;;;;;;;6.53;3.75;;;8.40;38.10;;;;;;5073363;28;20385;-79
2021/03/22 02:13:15;;;;;;;8.13;4.10;;;8.40;37.90;;;;;;5055144;28;20029;-72
2021/03/22 02:15:43;;;;;;;8.27;5.10;;;8.40;38.00;;;;;;5073321;28;20451;-76
2021/03/22 02:18:18;;;;;;;8.95;3.78;;;8.40;37.90;;;;;;5076084;28;20024;-74
2021/03/22 02:21:21;;;;;;;7.50;3.90;;;8.40;37.80;;;;;;5079070;28;20426;-75
2021/03/22 02:24:27;;;;;;;7.13;4.00;;;8.40;38.40;;;;;;5073950;28;20063;-72
2021/03/22 02:27:04;;;;;;;6.47;3.70;;;8.40;38.80;;;;;;5073080;28;20086;-79
2021/03/22 02:29:39;;;;;;;6.28;3.92;;;8.30;38.70;;;;;;5073193;28;20025;-70
2021/03/22 02:32:16;;;;;;;5.90;3.95;;;8.30;39.10;;;;;;5073568;28;20021;-73
2021/03/22 02:35:00;;;;;;;6.55;4.13;;;8.20;38.10;;;;;;5073367;28;20036;-76
2021/03/22 02:37:49;;;;;;;8.73;3.92;;;8.20;39.00;;;;;;5072930;28;20029;-75
2021/03/22 02:40:21;;;;;;;8.25;4.40;;;8.10;39.30;;;;;;5073035;28;20070;-71
2021/03/22 02:42:48;;;;;;;7.63;4.38;;;8.10;39.50;;;;;;5073094;28;20024;-75
2021/03/22 02:45:21;;;;;;;7.75;3.95;;;8.10;38.60;;;;;;5072904;28;20028;-72
2021/03/22 02:47:47;;;;;;;6.72;4.15;;;8.20;38.50;;;;;;5072057;28;20035;-74
2021/03/22 02:50:17;;;;;;;6.80;4.10;;;8.20;38.90;;;;;;5072899;28;20024;-76
2021/03/22 02:53:15;;;;;;;7.30;4.35;;;8.30;38.90;;;;;;5072627;28;20461;-76
2021/03/22 02:56:11;;;;;;;8.20;4.20;;;8.30;39.40;;;;;;5055141;28;20046;-73
2021/03/22 02:58:51;;;;;;;7.85;4.22;;;8.40;39.20;;;;;;5073016;28;20492;-77
2021/03/22 03:01:22;;;;;;;6.63;3.80;;;8.40;39.10;;;;;;5072894;28;20091;-76
2021/03/22 03:03:51;;;;;;;7.63;3.78;;;8.40;38.70;;;;;;5072680;28;20031;-71
2021/03/22 03:06:17;;;;;;;6.35;3.70;;;8.40;38.90;;;;;;5075711;28;20126;-77
2021/03/22 03:08:43;;;;;;;7.65;4.22;;;8.40;38.90;;;;;;5076435;28;20029;-75
2021/03/22 03:11:11;;;;;;;11.65;4.43;;;8.40;38.80;;;;;;5076552;28;20020;-77
2021/03/22 03:13:38;;;;;;;5.50;3.55;;;8.40;38.80;;;;;;5076393;28;20035;-77
2021/03/22 03:16:05;;;;;;;10.57;4.32;;;8.50;39.10;;;;;;5076100;28;20048;-71
2021/03/22 03:18:32;;;;;;;7.80;3.85;;;8.40;38.80;;;;;;5076318;28;20131;-71
2021/03/22 03:20:58;;;;;;;7.10;4.13;;;8.30;38.90;;;;;;5077044;28;20024;-69
2021/03/22 03:23:26;;;;;;;7.18;4.22;;;8.20;39.10;;;;;;5080786;28;20059;-74
2021/03/22 03:25:52;;;;;;;7.47;3.60;;;8.20;38.90;;;;;;5082223;28;20489;-76
2021/03/22 03:28:18;;;;;;;6.93;3.88;;;8.20;39.50;;;;;;5079689;28;20025;-79
2021/03/22 03:30:43;;;;;;;9.13;4.38;;;8.10;39.10;;;;;;5076158;28;20378;-73
2021/03/22 03:33:12;;;;;;;6.88;3.95;;;8.10;39.20;;;;;;5076202;28;20032;-76
2021/03/22 03:35:40;;;;;;;5.28;3.42;;;8.10;39.10;;;;;;5075800;28;20050;-77
2021/03/22 03:38:07;;;;;;;7.32;4.28;;;8.10;39.30;;;;;;5076022;28;20024;-76
2021/03/22 03:40:42;;;;;;;7.65;3.92;;;8.10;38.90;;;;;;5075999;28;20023;-79
2021/03/22 03:43:09;;;;;;;10.20;4.05;;;8.20;39.90;;;;;;5075882;28;20024;-79
2021/03/22 03:45:37;;;;;;;9.60;4.25;;;8.30;39.10;;;;;;5058010;28;20340;-72
2021/03/22 03:48:05;;;;;;;7.72;3.85;;;8.20;38.90;;;;;;5057837;28;20036;-78
2021/03/22 03:50:31;;;;;;;7.90;3.92;;;8.20;39.30;;;;;;5075601;28;20100;-76
2021/03/22 03:52:58;;;;;;;10.25;4.32;;;8.10;39.00;;;;;;5075123;28;20041;-76
2021/03/22 03:55:27;;;;;;;8.30;4.10;;;8.10;39.20;;;;;;5075630;28;20104;-77
2021/03/22 03:57:54;;;;;;;8.45;4.38;;;8.00;39.30;;;;;;5075739;28;20035;-72
2021/03/22 04:00:28;;;;;;;9.48;4.32;;;8.00;39.40;;;;;;5075649;28;20028;-73
2021/03/22 04:02:55;;;;;;;8.57;4.32;;;7.90;39.70;;;;;;5075516;28;20024;-72
2021/03/22 04:05:22;;;;;;;6.95;3.90;;;8.00;39.50;;;;;;5075576;28;20029;-76
2021/03/22 04:07:48;;;;;;;7.38;3.95;;;7.90;39.60;;;;;;5075398;28;20031;-75
2021/03/22 04:10:15;;;;;;;9.93;4.30;;;7.90;39.90;;;;;;5075348;28;20024;-77
2021/03/22 04:12:41;;;;;;;8.70;4.20;;;7.90;39.90;;;;;;5075257;28;20024;-76
2021/03/22 04:15:11;;;;;;;8.63;4.22;;;7.80;39.90;;;;;;5074994;28;20401;-77
2021/03/22 04:17:37;;;;;;;6.10;3.92;;;7.80;40.30;;;;;;5057802;28;20032;-76
2021/03/22 04:20:04;;;;;;;8.10;3.88;;;7.80;40.10;;;;;;5074981;28;20105;-78
2021/03/22 04:22:30;;;;;;;7.75;4.32;;;7.90;40.30;;;;;;5057396;28;20028;-76
2021/03/22 04:24:56;;;;;;;7.95;4.53;;;8.00;40.30;;;;;;5075212;28;20029;-73
2021/03/22 04:27:22;;;;;;;7.68;4.00;;;7.90;40.00;;;;;;5075057;28;20377;-74
2021/03/22 04:29:47;;;;;;;6.97;4.28;;;7.90;40.20;;;;;;5075052;28;20086;-78
2021/03/22 04:32:13;;;;;;;9.85;4.10;;;7.80;40.20;;;;;;5074892;28;20107;-73
2021/03/22 04:34:39;;;;;;;7.95;4.03;;;7.90;40.20;;;;;;5074872;28;20467;-70
2021/03/22 04:37:05;;;;;;;9.52;4.00;;;7.90;40.10;;;;;;5074937;28;20025;-78
2021/03/22 04:39:31;;;;;;;10.07;4.43;;;8.00;40.20;;;;;;5074838;28;20079;-75
2021/03/22 04:41:56;;;;;;;8.32;3.80;;;8.00;39.80;;;;;;5056672;28;20029;-76
2021/03/22 04:44:22;;;;;;;8.75;4.07;;;8.10;40.00;;;;;;5074726;28;20051;-76
2021/03/22 04:46:48;;;;;;;9.25;3.88;;;8.10;39.70;;;;;;5074415;28;20020;-75
2021/03/22 04:49:14;;;;;;;8.38;4.22;;;8.00;39.50;;;;;;5074723;28;20500;-73
2021/03/22 04:51:39;;;;;;;12.50;4.97;;;8.10;39.80;;;;;;5074360;28;20020;-72
2021/03/22 04:54:05;;;;;;;7.43;4.20;;;8.20;39.90;;;;;;5074662;28;20039;-77
2021/03/22 04:56:32;;;;;;;7.82;4.35;;;8.20;39.70;;;;;;5074492;28;20122;-76
2021/03/22 04:58:58;;;;;;;8.82;4.50;;;8.10;39.90;;;;;;5074669;28;20124;-76
2021/03/22 05:01:23;;;;;;;9.38;4.32;;;8.10;39.70;;;;;;5074571;28;20096;-78
2021/03/22 05:03:49;;;;;;;9.15;4.35;;;8.20;39.80;;;;;;5073781;28;20024;-80
2021/03/22 05:06:15;;;;;;;7.20;4.18;;;8.20;39.50;;;;;;5073725;28;20023;-72
2021/03/22 05:08:41;;;;;;;9.25;4.40;;;8.10;39.90;;;;;;5055554;28;20035;-72
2021/03/22 05:11:08;;;;;;;7.65;4.10;;;8.10;40.00;;;;;;5056066;28;20025;-72
2021/03/22 05:13:34;;;;;;;9.32;4.85;;;8.10;39.80;;;;;;5074119;28;20033;-79
2021/03/22 05:16:00;;;;;;;8.60;4.30;;;8.00;39.90;;;;;;5074857;28;20048;-76
2021/03/22 05:18:30;;;;;;;10.55;4.20;;;7.90;40.10;;;;;;5075728;28;20485;-73
2021/03/22 05:21:09;;;;;;;9.32;4.22;;;8.00;39.90;;;;;;5083398;28;20070;-80
2021/03/22 05:23:38;;;;;;;10.63;4.43;;;7.90;40.00;;;;;;5071452;28;20508;-69
2021/03/22 05:26:05;;;;;;;7.63;4.45;;;8.10;40.30;;;;;;5074639;28;20378;-77
2021/03/22 05:28:35;;;;;;;10.57;4.95;;;8.10;40.00;;;;;;5073875;28;20020;-77
2021/03/22 05:31:03;;;;;;;12.73;5.32;;;8.10;39.90;;;;;;5073961;28;20029;-74
2021/03/22 05:33:28;;;;;;;6.90;4.57;;;8.10;39.80;;;;;;5074067;28;20036;-76
2021/03/22 05:35:57;;;;;;;10.13;4.93;;;8.20;40.00;;;;;;5073799;28;20020;-74
2021/03/22 05:38:24;;;;;;;6.75;3.90;;;8.20;39.70;;;;;;5073348;28;20032;-71
2021/03/22 05:41:02;;;;;;;9.18;4.78;;;8.20;39.70;;;;;;5073941;28;20354;-75
2021/03/22 05:43:33;;;;;;;8.15;4.45;;;8.10;39.30;;;;;;5073996;28;20035;-75
2021/03/22 05:46:16;;;;;;;9.77;4.68;;;8.10;40.40;;;;;;5073811;28;20097;-72
2021/03/22 05:49:06;;;;;;;8.68;5.03;;;8.10;40.30;;;;;;5073897;28;20039;-77
2021/03/22 05:52:03;;;;;;;9.68;4.18;;;8.10;40.10;;;;;;5073525;28;20116;-71
2021/03/22 05:55:04;;;;;;;9.27;4.38;;;8.10;40.40;;;;;;5073441;28;20484;-69
2021/03/22 05:58:04;;;;;;;8.80;5.20;;;8.20;40.60;;;;;;5073434;28;20388;-73
2021/03/22 06:00:36;;;;;;;9.50;4.85;;;8.30;39.90;;;;;;5004652;28;20037;-75
2021/03/22 06:03:09;;;;;;;10.10;5.10;;;8.30;39.80;;;;;;5055098;28;20059;-73
2021/03/22 06:05:42;;;;;;;7.03;4.93;;;8.40;39.70;;;;;;5072981;28;20485;-76
2021/03/22 06:08:27;;;;;;;9.88;5.38;;;8.50;39.80;;;;;;5073241;28;20024;-72
2021/03/22 06:10:55;;;;;;;9.85;5.28;;;8.60;39.60;;;;;;5073085;28;20032;-76
2021/03/22 06:13:36;;;;;;;9.77;6.20;;;8.70;39.70;;;;;;5038558;28;20033;-78
2021/03/22 06:16:25;;;;;;;12.05;5.93;;;8.80;39.70;;;;;;5072758;28;20028;-76
2021/03/22 06:19:01;;;;;;;11.95;6.20;;;9.00;39.80;;;;;;5072978;28;20110;-76
2021/03/22 06:21:31;;;;;;;10.13;5.82;;;9.10;39.10;;;;;;5072930;28;20021;-75
2021/03/22 06:23:56;;;;;;;13.02;5.68;;;9.20;39.00;;;;;;5072809;28;20113;-75
2021/03/22 06:26:42;;;;;;;11.35;6.20;;;9.20;38.80;;;;;;5072648;28;20048;-73
2021/03/22 06:29:33;;;;;;;11.70;6.80;;;9.40;39.20;;;;;;5072915;28;20025;-77
2021/03/22 06:32:07;;;;;;;12.38;6.45;;;9.30;39.20;;;;;;5072762;28;20032;-75
2021/03/22 06:34:54;;;;;;;10.80;5.80;;;9.30;39.00;;;;;;5072782;28;20036;-74
2021/03/22 06:37:27;;;;;;;13.15;6.22;;;9.50;39.10;;;;;;5072657;28;20024;-71
2021/03/22 06:40:10;;;;;;;10.55;5.20;;;9.50;38.50;;;;;;5055711;28;20028;-77
2021/03/22 06:42:37;;;;;;;12.27;6.05;;;9.70;38.60;;;;;;5058893;28;20035;-73
2021/03/22 06:45:24;;;;;;;11.85;6.28;;;9.90;38.30;;;;;;5076617;28;20035;-77
2021/03/22 06:48:10;;;;;;;9.60;5.70;;;10.10;37.50;;;;;;5076396;28;20059;-77
2021/03/22 06:50:36;;;;;;;9.20;5.30;;;10.20;37.30;;;;;;5076602;28;20020;-73
2021/03/22 06:53:02;;;;;;;8.32;5.25;;;10.30;36.70;;;;;;5076419;28;20029;-76
2021/03/22 06:55:37;;;;;;;12.50;5.97;;;10.30;36.50;;;;;;5076385;28;20017;-79
2021/03/22 06:58:03;;;;;;;10.43;5.70;;;10.30;36.60;;;;;;5076211;28;20028;-73
2021/03/22 07:00:33;;;;;;;15.25;5.63;;;10.40;36.30;;;;;;5075886;28;20082;-78
2021/03/22 07:03:18;;;;;;;10.50;5.40;;;10.40;36.40;;;;;;5075929;28;20029;-74
2021/03/22 07:05:44;;;;;;;11.45;5.63;;;10.50;36.50;;;;;;5075913;28;20017;-78
2021/03/22 07:08:13;;;;;;;9.43;5.47;;;10.70;36.50;;;;;;5075786;28;20020;-76
2021/03/22 07:10:44;;;;;;;14.38;5.85;;;10.80;36.40;;;;;;5075841;28;20526;-77
2021/03/22 07:13:35;;;;;;;15.13;5.55;;;11.00;36.10;;;;;;5076044;28;20363;-77
2021/03/22 07:16:23;;;;;;;12.43;5.13;;;11.10;36.50;;;;;;5078284;28;20029;-74
2021/03/22 07:19:07;;;;;;;17.23;5.45;;;11.10;35.90;;;;;;5089659;28;20044;-73
2021/03/22 07:21:43;;;;;;;8.05;4.60;;;11.10;35.80;;;;;;5084976;28;20107;-75
2021/03/22 07:24:35;;;;;;;9.45;4.95;;;11.20;35.90;;;;;;5078479;28;20366;-73
2021/03/22 07:27:18;;;;;;;9.73;5.10;;;11.20;34.80;;;;;;5075592;28;20024;-75
2021/03/22 07:30:18;;;;;;;9.32;5.10;;;11.30;35.60;;;;;;5075673;28;20017;-77
2021/03/22 07:33:06;;;;;;;13.98;5.20;;;11.50;35.40;;;;;;5061238;28;20032;-73
2021/03/22 07:35:50;;;;;;;13.63;5.22;;;11.60;35.30;;;;;;5075370;28;20036;-75
2021/03/22 07:38:58;;;;;;;10.13;4.15;;;11.60;35.40;;;;;;5075610;28;20522;-76
2021/03/22 07:41:32;;;;;;;10.30;4.78;;;11.70;34.60;;;;;;5064872;28;20094;-72
2021/03/22 07:44:19;;;;;;;12.13;4.55;;;11.90;34.40;;;;;;5076840;28;20063;-74
2021/03/22 07:46:53;;;;;;;7.78;3.72;;;11.90;34.00;;;;;;5076691;28;20381;-77
2021/03/22 07:49:37;;;;;;;8.40;3.33;;;11.90;34.80;;;;;;5076504;28;20052;-77
2021/03/22 07:52:23;;;;;;;;;;;11.90;34.40;;;;;;5075539;28;20027;-73
2021/03/22 07:55:27;;;;;;;8.70;3.90;;;11.90;32.40;;;;;;5075103;28;19920;-76
2021/03/22 07:57:52;;;;;;;12.85;4.15;;;11.90;33.80;;;;;;5074907;28;20489;-77
2021/03/22 08:00:39;;;;;;;8.88;3.80;;;11.80;33.70;;;;;;5074969;28;20032;-79
2021/03/22 08:03:20;;;;;;;10.38;4.13;;;11.70;32.90;;;;;;5074881;28;20021;-74
2021/03/22 08:05:56;;;;;;;6.32;3.67;;;11.70;33.80;;;;;;5074744;28;20029;-73
2021/03/22 08:08:25;;;;;;;7.47;3.65;;;11.80;33.00;;;;;;5074890;28;20021;-76
2021/03/22 08:10:50;;;;;;;7.90;3.17;;;11.70;33.10;;;;;;5075395;28;20032;-75
2021/03/22 08:13:34;;;;;;;7.88;3.65;;;11.80;33.70;;;;;;5075018;28;20032;-78
2021/03/22 08:16:33;;;;;;;6.40;3.65;;;11.70;32.40;;;;;;5074766;28;20188;-72
2021/03/22 08:19:15;;;;;;;8.45;3.53;;;11.80;32.10;;;;;;5075598;28;20127;-75
2021/03/22 08:22:13;;;;;;;9.15;3.72;;;11.80;33.30;;;;;;5078360;28;20024;-74
2021/03/22 08:25:08;;;;;;;8.85;3.25;;;11.80;32.40;;;;;;5047168;28;20477;-73
2021/03/22 08:27:41;;;;;;;8.55;3.60;;;11.90;32.10;;;;;;5075058;28;20028;-73
2021/03/22 08:30:32;;;;;;;6.82;3.35;;;11.90;32.60;;;;;;5074644;28;20107;-75
2021/03/22 08:33:09;;;;;;;7.43;3.33;;;11.80;31.60;;;;;;5074501;28;20036;-76
2021/03/22 08:35:56;;;;;;;8.35;3.88;;;11.80;32.70;;;;;;5074423;28;20078;-76
2021/03/22 08:38:40;;;;;;;9.57;3.65;;;11.80;31.30;;;;;;5056994;28;20493;-72
2021/03/22 08:41:30;;;;;;;20.40;9.63;;;11.80;31.50;;;;;;5074500;28;20028;-75
2021/03/22 08:44:22;;;;;;;8.18;4.15;;;11.90;32.60;;;;;;5055924;28;20134;-74
2021/03/22 08:46:55;;;;;;;5.88;3.40;;;11.90;31.50;;;;;;5074430;28;20028;-71
2021/03/22 08:49:31;;;;;;;6.68;3.30;;;12.00;30.90;;;;;;5074190;28;20040;-75
2021/03/22 08:52:02;;;;;;;5.57;3.13;;;12.00;31.20;;;;;;5074085;28;20024;-74
2021/03/22 08:54:32;;;;;;;7.00;3.13;;;12.00;32.00;;;;;;5056036;28;20052;-72
2021/03/22 08:57:30;;;;;;;7.60;3.17;;;12.10;32.00;;;;;;5073722;28;20046;-73
2021/03/22 09:00:32;;;;;;;8.38;3.33;;;12.10;32.10;;;;;;5058330;28;20028;-74
2021/03/22 09:03:04;;;;;;;7.78;3.20;;;12.10;30.50;;;;;;5031895;28;20084;-76
2021/03/22 09:05:33;;;;;;;7.47;3.88;;;12.20;31.60;;;;;;5073681;28;20394;-71
2021/03/22 09:08:39;;;;;;;8.88;3.90;;;12.20;31.70;;;;;;5073729;28;20028;-72
2021/03/22 09:11:15;;;;;;;5.05;2.85;;;12.30;30.70;;;;;;4992405;28;20026;-74
2021/03/22 09:13:53;;;;;;;7.55;3.75;;;12.40;31.70;;;;;;5065371;28;20482;-71
2021/03/22 09:16:25;;;;;;;6.75;3.72;;;12.50;31.00;;;;;;5073715;28;20060;-73
2021/03/22 09:19:09;;;;;;;6.70;3.53;;;12.60;31.70;;;;;;5073254;28;20041;-74
2021/03/22 09:21:41;;;;;;;;;;;12.60;31.50;;;;;;5073753;28;20064;-74
2021/03/22 09:24:36;;;;;;;5.00;2.80;;;12.70;29.20;;;;;;5073579;28;19911;-72
2021/03/22 09:27:03;;;;;;;10.60;5.63;;;12.70;30.00;;;;;;5065809;28;20102;-75
2021/03/22 09:29:31;;;;;;;6.45;3.17;;;12.70;31.20;;;;;;5073662;28;20033;-75
2021/03/22 09:31:59;;;;;;;6.43;2.97;;;12.80;31.10;;;;;;5073576;28;20362;-73
2021/03/22 09:34:40;;;;;;;6.43;2.70;;;12.80;31.10;;;;;;5073228;28;20379;-79
2021/03/22 09:37:38;;;;;;;8.32;3.08;;;13.00;30.00;;;;;;5073355;28;20043;-73
2021/03/22 09:40:11;;;;;;;5.00;2.38;;;13.00;29.70;;;;;;5073786;28;20020;-73
2021/03/22 09:42:37;;;;;;;7.37;2.37;;;13.00;29.80;;;;;;5073963;28;20425;-76
2021/03/22 09:45:21;;;;;;;5.93;2.60;;;13.10;31.10;;;;;;5073558;28;20032;-79
2021/03/22 09:48:16;;;;;;;10.07;2.97;;;13.10;29.20;;;;;;5073532;28;20025;-76
2021/03/22 09:50:45;;;;;;;7.78;3.38;;;13.20;29.80;;;;;;5057192;28;20037;-74
2021/03/22 09:53:25;;;;;;;5.85;2.80;;;13.30;31.30;;;;;;5073402;28;20029;-72
2021/03/22 09:55:51;;;;;;;5.38;2.60;;;13.40;29.90;;;;;;5073443;28;20017;-73
2021/03/22 09:58:48;;;;;;;5.97;2.90;;;13.40;30.10;;;;;;5073859;28;20028;-73
2021/03/22 10:01:29;;;;;;;5.75;2.63;;;13.40;29.50;;;;;;5056975;28;20032;-79
2021/03/22 10:04:15;;;;;;;7.45;2.40;;;13.50;29.60;;;;;;5073654;28;20035;-78
2021/03/22 10:06:40;;;;;;;7.57;2.80;;;13.50;30.40;;;;;;5073213;28;20087;-76
2021/03/22 10:09:17;;;;;;;5.88;2.45;;;13.60;30.10;;;;;;5072826;28;20485;-76
2021/03/22 10:11:46;;;;;;;4.47;2.20;;;13.60;29.20;;;;;;5073128;28;20024;-73
2021/03/22 10:14:39;;;;;;;5.88;2.13;;;13.70;30.40;;;;;;5073067;28;20029;-77
2021/03/22 10:17:07;;;;;;;5.97;2.20;;;13.70;30.10;;;;;;5072706;28;20403;-77
2021/03/22 10:19:36;;;;;;;8.15;2.50;;;13.80;30.30;;;;;;5072817;28;20070;-75
2021/03/22 10:22:19;;;;;;;7.63;2.40;;;13.80;30.10;;;;;;5073337;28;20021;-73
2021/03/22 10:25:17;;;;;;;7.63;2.95;;;13.90;29.00;;;;;;5073115;28;20033;-73
2021/03/22 10:27:46;;;;;;;13.60;2.85;;;14.00;29.10;;;;;;5073240;28;20501;-76
2021/03/22 10:30:15;;;;;;;4.97;2.30;;;14.20;30.20;;;;;;5073194;28;20462;-74
2021/03/22 10:33:01;;;;;;;5.28;2.60;;;14.20;29.20;;;;;;5072682;28;20046;-74
2021/03/22 10:35:50;;;;;;;5.38;2.42;;;14.30;28.90;;;;;;5072894;28;20040;-73
2021/03/22 10:38:21;;;;;;;7.40;2.58;;;14.40;28.00;;;;;;5072708;28;20360;-74
2021/03/22 10:40:47;;;;;;;13.15;7.78;;;14.50;29.20;;;;;;5054629;28;20139;-74
2021/03/22 10:43:36;;;;;;;14.07;8.35;;;14.50;28.80;;;;;;5072682;28;20020;-73
2021/03/22 10:46:19;;;;;;;4.30;2.80;;;14.50;29.00;;;;;;5072353;28;20023;-71
2021/03/22 10:48:57;;;;;;;5.63;2.72;;;14.50;28.90;;;;;;5072568;28;20028;-73
2021/03/22 10:51:47;;;;;;;6.32;2.70;;;14.60;29.00;;;;;;5072902;28;20466;-74
2021/03/22 10:54:38;;;;;;;5.97;2.38;;;14.80;27.80;;;;;;5072531;28;20075;-73
2021/03/22 10:57:05;;;;;;;7.47;2.33;;;15.00;29.10;;;;;;5055048;28;20052;-73
2021/03/22 10:59:36;;;;;;;4.47;2.42;;;15.10;28.60;;;;;;5073069;28;20462;-74
2021/03/22 11:02:27;;;;;;;5.35;2.40;;;15.20;28.50;;;;;;5072488;28;20025;-70
2021/03/22 11:04:54;;;;;;;4.15;2.28;;;15.30;27.50;;;;;;5072553;28;20060;-71
2021/03/22 11:07:26;;;;;;;3.67;1.92;;;15.40;27.90;;;;;;5072391;28;20059;-76
2021/03/22 11:10:01;;;;;;;5.90;2.30;;;15.40;26.90;;;;;;5072262;28;20452;-76
2021/03/22 11:12:29;;;;;;;4.88;2.30;;;15.50;27.70;;;;;;5072320;28;20102;-71
2021/03/22 11:15:01;;;;;;;6.40;2.20;;;15.60;27.60;;;;;;5072327;28;20025;-72
2021/03/22 11:17:27;;;;;;;4.22;2.30;;;15.70;27.10;;;;;;5055208;28;20113;-73
2021/03/22 11:19:54;;;;;;;5.32;2.50;;;15.70;27.20;;;;;;5072127;28;20473;-70
2021/03/22 11:22:25;;;;;;;4.20;2.22;;;15.90;27.30;;;;;;5072941;28;20133;-70
2021/03/22 11:24:54;;;;;;;8.63;2.55;;;16.00;27.10;;;;;;5072875;28;20021;-73
2021/03/22 11:27:22;;;;;;;5.82;2.35;;;16.00;27.10;;;;;;5075274;28;20364;-74
2021/03/22 11:29:55;;;;;;;5.15;2.25;;;16.10;26.90;;;;;;5075584;28;20054;-72
2021/03/22 11:32:24;;;;;;;6.70;2.38;;;16.10;26.10;;;;;;5075763;28;20096;-78
2021/03/22 11:34:50;;;;;;;5.85;2.30;;;16.20;26.40;;;;;;5075859;28;20473;-74
2021/03/22 11:37:30;;;;;;;8.27;2.45;;;16.30;26.20;;;;;;5075423;28;20374;-75
2021/03/22 11:40:06;;;;;;;5.07;2.00;;;16.50;26.40;;;;;;5075822;28;20028;-78
2021/03/22 11:42:36;;;;;;;3.97;1.70;;;16.50;25.60;;;;;;5075583;28;20466;-71
2021/03/22 11:45:32;;;;;;;6.80;2.40;;;16.50;25.40;;;;;;5075390;28;20479;-76
2021/03/22 11:47:59;;;;;;;7.75;2.70;;;16.70;25.60;;;;;;5075422;28;20032;-71
2021/03/22 11:50:27;;;;;;;3.97;2.03;;;17.00;25.80;;;;;;5075575;28;20033;-77
2021/03/22 11:53:14;;;;;;;6.43;2.17;;;17.20;25.80;;;;;;5075147;28;20036;-71
2021/03/22 11:55:42;;;;;;;11.52;2.35;;;17.20;25.50;;;;;;5074946;28;20100;-72
2021/03/22 11:58:27;;;;;;;7.18;2.45;;;17.20;25.90;;;;;;5075495;28;20070;-75
2021/03/22 12:00:53;;;;;;;4.82;2.10;;;17.20;26.00;;;;;;5075292;28;20021;-75
2021/03/22 12:03:27;;;;;;;4.75;2.20;;;17.20;26.20;;;;;;5075264;28;20033;-73
2021/03/22 12:06:11;;;;;;;8.27;2.70;;;17.10;25.90;;;;;;5074726;28;20021;-72
2021/03/22 12:08:39;;;;;;;6.20;2.33;;;16.90;26.10;;;;;;5074707;28;20063;-70
2021/03/22 12:11:09;;;;;;;5.28;2.42;;;16.80;26.00;;;;;;5074576;28;20112;-74
2021/03/22 12:13:34;;;;;;;6.68;2.60;;;16.80;26.00;;;;;;5074590;28;20115;-71
2021/03/22 12:16:02;;;;;;;6.30;2.80;;;16.80;26.10;;;;;;5074674;28;20422;-73
2021/03/22 12:18:37;;;;;;;6.55;2.22;;;16.80;26.10;;;;;;5074655;28;20034;-71
2021/03/22 12:21:10;;;;;;;3.97;2.08;;;16.80;26.10;;;;;;5074373;28;20048;-72
2021/03/22 12:23:36;;;;;;;5.28;2.33;;;16.70;25.40;;;;;;5074826;28;20138;-73
2021/03/22 12:26:03;;;;;;;6.53;2.15;;;16.70;26.10;;;;;;5074609;28;20094;-71
2021/03/22 12:28:29;;;;;;;7.15;2.20;;;16.80;26.40;;;;;;5074785;28;20465;-71
2021/03/22 12:30:55;;;;;;;7.22;1.67;;;16.80;26.40;;;;;;5074632;28;20021;-72
2021/03/22 12:33:28;;;;;;;4.22;1.55;;;16.70;26.40;;;;;;5074424;28;20032;-72
2021/03/22 12:35:55;;;;;;;3.20;1.50;;;16.70;26.90;;;;;;5074388;28;20017;-74
2021/03/22 12:38:21;;;;;;;5.57;1.65;;;16.60;27.00;;;;;;5074472;28;20107;-72
2021/03/22 12:40:47;;;;;;;3.75;1.52;;;16.50;27.00;;;;;;5074570;28;20485;-72
2021/03/22 12:43:26;;;;;;;4.22;1.48;;;16.40;27.00;;;;;;5074647;28;20021;-72
2021/03/22 12:45:52;;;;;;;2.03;1.10;;;16.30;27.20;;;;;;5056246;28;20037;-74
2021/03/22 12:48:18;;;;;;;3.38;1.35;;;16.20;27.30;;;;;;5074118;28;20477;-75
2021/03/22 12:50:44;;;;;;;3.00;1.45;;;16.10;27.40;;;;;;5074273;28;20040;-72
2021/03/22 12:53:12;;;;;;;3.78;1.23;;;16.00;27.40;;;;;;5074135;28;20129;-77
2021/03/22 12:55:39;;;;;;;2.75;1.40;;;16.00;27.60;;;;;;5074079;28;20036;-74
2021/03/22 12:58:14;;;;;;;4.72;1.33;;;16.00;27.80;;;;;;5074316;28;20035;-76
2021/03/22 13:00:39;;;;;;;6.00;1.63;;;16.00;27.70;;;;;;5074360;28;20059;-75
2021/03/22 13:03:05;;;;;;;6.80;1.40;;;16.00;27.80;;;;;;5073868;28;20097;-77
2021/03/22 13:05:36;;;;;;;3.45;1.30;;;16.00;27.90;;;;;;5074157;28;20055;-74
2021/03/22 13:08:01;;;;;;;6.70;1.88;;;15.90;28.00;;;;;;5074151;28;20033;-73
2021/03/22 13:10:32;;;;;;;4.75;1.52;;;15.80;28.20;;;;;;5074255;28;20023;-76
2021/03/22 13:12:59;;;;;;;4.22;1.60;;;15.80;28.50;;;;;;5073704;28;20027;-80
2021/03/22 13:15:28;;;;;;;4.07;1.50;;;15.80;28.40;;;;;;5073773;28;20016;-74
2021/03/22 13:17:54;;;;;;;3.85;1.52;;;15.70;28.60;;;;;;5074053;28;20537;-78
2021/03/22 13:20:22;;;;;;;3.45;1.50;;;15.70;28.90;;;;;;5073988;28;20115;-75
2021/03/22 13:22:48;;;;;;;3.88;1.50;;;15.70;28.80;;;;;;5074441;28;20470;-79
2021/03/22 13:25:14;;;;;;;3.47;1.77;;;15.70;28.90;;;;;;5073807;28;20100;-75